Terminal Aerodrome Forecast
Issued by NWS Duluth, MN

Home | Current Version | Previous Version | Text Only | Print | Product List | Glossary On
Versions: 1 2 3 4 5 6 7 8 9 10 11 12 13 14 15 16 17 18 19 20 21 22 23 24 25 26 27
000
FTUS43 KDLH 132000 AAA
TAFINL
TAF AMD
KINL 132004Z 1320/1418 30015G26KT P6SM VCSH SCT025 OVC040
      TEMPO 1320/1324 -RA BKN025
     FM140000 30010KT P6SM -RA SCT015 OVC030
     FM140600 32012KT P6SM -RA BKN015 OVC025
     FM141500 33012G20KT P6SM -RA OVC025=

USA.gov is the U.S. government's official web portal to all federal, state and local government web resources and services.